createdAt,value
2023-05-14T00:00:26.850Z,99880.28
2023-05-14T00:02:54.389Z,99880.91
2023-05-14T00:05:21.810Z,99887.81
2023-05-14T00:07:50.393Z,99881.88
2023-05-14T00:10:17.802Z,99874.72
2023-05-14T00:12:44.936Z,99876.28
2023-05-14T00:15:12.113Z,99878.13
2023-05-14T00:17:39.352Z,99880.47
2023-05-14T00:20:07.364Z,99876.38
2023-05-14T00:22:36.012Z,99882.50
2023-05-14T00:25:06.336Z,99877.91
2023-05-14T00:27:33.627Z,99875.34
2023-05-14T00:30:00.817Z,99878.78
2023-05-14T00:32:28.011Z,99882.38
2023-05-14T00:34:55.308Z,99882.66
2023-05-14T00:37:22.532Z,99876.22
2023-05-14T00:39:49.735Z,99879.25
2023-05-14T00:42:18.267Z,99871.25
2023-05-14T00:44:45.456Z,99872.97
2023-05-14T00:47:13.210Z,99866.31
2023-05-14T00:49:40.940Z,99864.94
2023-05-14T00:52:08.191Z,99868.81
2023-05-14T00:54:35.642Z,99859.97
2023-05-14T00:57:03.594Z,99855.53
2023-05-14T00:59:32.693Z,99851.97
2023-05-14T01:02:00.168Z,99852.47
2023-05-14T01:04:27.625Z,99844.47
2023-05-14T01:07:04.116Z,99850.19
2023-05-14T01:09:41.003Z,99848.28
2023-05-14T01:12:16.339Z,99851.47
2023-05-14T01:14:54.811Z,99835.28
2023-05-14T01:17:22.955Z,99842.63
2023-05-14T01:19:50.997Z,99841.31
2023-05-14T01:22:20.630Z,99847.06
2023-05-14T01:24:47.806Z,99847.69
2023-05-14T01:27:20.585Z,99836.31
2023-05-14T01:29:55.632Z,99840.88
2023-05-14T01:32:24.472Z,99843.72
2023-05-14T01:34:52.972Z,99838.44
2023-05-14T01:37:22.593Z,99838.31
2023-05-14T01:39:51.765Z,99846.22
2023-05-14T01:42:19.496Z,99849.63
2023-05-14T01:44:46.769Z,99843.88
2023-05-14T01:47:14.046Z,99844.03
2023-05-14T01:49:41.198Z,99845.03
2023-05-14T01:52:08.492Z,99849.06
2023-05-14T01:54:37.057Z,99847.38
2023-05-14T01:57:04.494Z,99855.50
2023-05-14T01:59:31.674Z,99842.97
2023-05-14T02:01:58.930Z,99848.84
2023-05-14T02:04:26.437Z,99842.88
2023-05-14T02:06:53.695Z,99834.03
2023-05-14T02:09:20.888Z,99837.91
2023-05-14T02:11:49.436Z,99839.06
2023-05-14T02:14:16.824Z,99837.22
2023-05-14T02:16:44.004Z,99836.34
2023-05-14T02:19:11.283Z,99838.81
2023-05-14T02:21:38.579Z,99830.75
2023-05-14T02:24:05.928Z,99829.91
2023-05-14T02:26:33.114Z,99823.47
2023-05-14T02:29:01.660Z,99830.91
2023-05-14T02:31:29.169Z,99836.16
2023-05-14T02:33:56.827Z,99833.59
2023-05-14T02:36:23.974Z,99828.34
2023-05-14T02:38:51.136Z,99827.50
2023-05-14T02:41:18.341Z,99831.22
2023-05-14T02:43:45.548Z,99824.41
2023-05-14T02:46:14.198Z,99823.69
2023-05-14T02:48:41.369Z,99828.72
2023-05-14T02:51:08.628Z,99824.47
2023-05-14T02:53:35.886Z,99815.06
2023-05-14T02:56:03.334Z,99809.38
2023-05-14T02:58:30.546Z,99820.34
2023-05-14T03:00:57.785Z,99813.53
2023-05-14T03:03:26.837Z,99810.13
2023-05-14T03:05:54.429Z,99809.72
2023-05-14T03:08:21.667Z,99813.44
2023-05-14T03:10:48.876Z,99819.31
2023-05-14T03:13:16.080Z,99825.41
2023-05-14T03:15:43.271Z,99821.31
2023-05-14T03:18:10.411Z,99821.44
2023-05-14T03:20:39.094Z,99815.09
2023-05-14T03:23:06.462Z,99823.59
2023-05-14T03:25:33.643Z,99823.75
2023-05-14T03:28:00.847Z,99825.59
2023-05-14T03:30:28.321Z,99816.78
2023-05-14T03:32:55.604Z,99818.47
2023-05-14T03:35:22.866Z,99817.47
2023-05-14T03:37:51.518Z,99814.75
2023-05-14T03:40:18.711Z,99820.78
2023-05-14T03:42:45.910Z,99811.94
2023-05-14T03:45:13.049Z,99821.38
2023-05-14T03:47:40.245Z,99819.81
2023-05-14T03:50:08.693Z,99818.97
2023-05-14T03:52:35.957Z,99820.53
2023-05-14T03:55:05.595Z,99826.97
2023-05-14T03:57:32.788Z,99829.81
2023-05-14T03:59:59.928Z,99829.22
2023-05-14T04:02:27.161Z,99829.66
2023-05-14T04:04:56.042Z,99826.78
2023-05-14T04:07:23.344Z,99825.81
2023-05-14T04:09:50.474Z,99818.22
2023-05-14T04:12:20.062Z,99824.91
2023-05-14T04:14:47.261Z,99823.16
2023-05-14T04:17:14.438Z,99833.66
2023-05-14T04:19:41.882Z,99835.44
2023-05-14T04:22:09.104Z,99824.16
2023-05-14T04:24:36.267Z,99826.22
2023-05-14T04:27:03.940Z,99829.31
2023-05-14T04:29:32.606Z,99814.13
2023-05-14T04:31:59.849Z,99815.44
2023-05-14T04:34:27.091Z,99819.88
2023-05-14T04:36:54.302Z,99812.16
2023-05-14T04:39:21.460Z,99816.63
2023-05-14T04:41:48.666Z,99815.59
2023-05-14T04:44:15.842Z,99812.28
2023-05-14T04:46:44.320Z,99814.44
2023-05-14T04:49:11.518Z,99814.31
2023-05-14T04:51:38.726Z,99815.03
2023-05-14T04:54:06.024Z,99808.47
2023-05-14T04:56:33.236Z,99817.81
2023-05-14T04:59:00.401Z,99813.22
2023-05-14T05:01:27.666Z,99827.16
2023-05-14T05:03:56.311Z,99826.00
2023-05-14T05:06:23.538Z,99831.09
2023-05-14T05:08:50.669Z,99837.88
2023-05-14T05:11:17.828Z,99833.06
2023-05-14T05:13:45.074Z,99824.38
2023-05-14T05:16:12.336Z,99819.19
2023-05-14T05:18:39.655Z,99828.13
2023-05-14T05:21:08.186Z,99824.41
2023-05-14T05:23:35.395Z,99825.22
2023-05-14T05:26:02.546Z,99831.06
2023-05-14T05:28:29.733Z,99825.88
2023-05-14T05:30:56.971Z,99827.84
2023-05-14T05:33:24.225Z,99820.94
2023-05-14T05:35:51.392Z,99816.00
2023-05-14T05:38:19.898Z,99819.63
2023-05-14T05:40:47.128Z,99818.25
2023-05-14T05:43:15.142Z,99817.00
2023-05-14T05:45:42.340Z,99815.56
2023-05-14T05:48:09.528Z,99819.28
2023-05-14T05:50:36.676Z,99821.31
2023-05-14T05:53:04.220Z,99817.97
2023-05-14T05:55:32.750Z,99818.97
2023-05-14T05:57:59.962Z,99817.28
2023-05-14T06:00:27.273Z,99821.84
2023-05-14T06:02:54.527Z,99819.44
2023-05-14T06:05:21.831Z,99816.50
2023-05-14T06:07:49.074Z,99824.69
2023-05-14T06:10:16.328Z,99820.69
2023-05-14T06:12:44.850Z,99816.56
2023-05-14T06:15:12.310Z,99813.34
2023-05-14T06:17:39.635Z,99806.59
2023-05-14T06:20:08.072Z,99815.50
2023-05-14T06:22:35.506Z,99815.66
2023-05-14T06:25:03.030Z,99821.59
2023-05-14T06:27:30.222Z,99824.34
2023-05-14T06:29:58.800Z,99813.91
2023-05-14T06:32:26.032Z,99812.97
2023-05-14T06:34:53.201Z,99818.19
2023-05-14T06:37:20.339Z,99820.34
2023-05-14T06:39:47.471Z,99818.75
2023-05-14T06:42:14.621Z,99811.41
2023-05-14T06:44:41.825Z,99815.69
2023-05-14T06:47:12.180Z,99816.16
2023-05-14T06:49:39.560Z,99811.00
2023-05-14T06:52:06.937Z,99810.91
2023-05-14T06:54:34.094Z,99804.38
2023-05-14T06:57:01.302Z,99802.47
2023-05-14T06:59:28.501Z,99804.34
2023-05-14T07:01:55.739Z,99809.44
2023-05-14T07:04:24.346Z,99805.09
2023-05-14T07:06:51.636Z,99799.84
2023-05-14T07:09:18.861Z,99795.78
2023-05-14T07:11:46.056Z,99789.66
2023-05-14T07:14:13.329Z,99786.69
2023-05-14T07:16:40.545Z,99783.56
2023-05-14T07:19:07.926Z,99781.72
2023-05-14T07:21:36.472Z,99778.38
2023-05-14T07:24:04.117Z,99779.19
2023-05-14T07:26:31.326Z,99768.41
2023-05-14T07:28:58.490Z,99768.19
2023-05-14T07:31:25.801Z,99763.53
2023-05-14T07:33:53.076Z,99763.00
2023-05-14T07:36:20.246Z,99764.19
2023-05-14T07:38:48.825Z,99754.00
2023-05-14T07:41:16.141Z,99755.03
2023-05-14T07:43:43.507Z,99761.56
2023-05-14T07:46:10.706Z,99758.31
2023-05-14T07:48:37.940Z,99761.06
2023-05-14T07:51:05.163Z,99769.56
2023-05-14T07:53:32.412Z,99768.97
2023-05-14T07:56:00.917Z,99766.38
2023-05-14T07:58:28.102Z,99758.84
2023-05-14T08:00:55.410Z,99754.66
2023-05-14T08:03:22.716Z,99758.63
2023-05-14T08:05:49.952Z,99763.78
2023-05-14T08:08:17.125Z,99760.72
2023-05-14T08:10:44.358Z,99763.28
2023-05-14T08:13:12.943Z,99755.06
2023-05-14T08:15:40.116Z,99766.44
2023-05-14T08:18:07.354Z,99762.59
2023-05-14T08:20:34.577Z,99765.75
2023-05-14T08:23:01.780Z,99758.84
2023-05-14T08:25:28.978Z,99759.38
2023-05-14T08:27:56.194Z,99754.50
2023-05-14T08:30:25.040Z,99751.16
2023-05-14T08:32:52.831Z,99749.84
2023-05-14T08:35:20.236Z,99751.72
2023-05-14T08:37:47.418Z,99750.66
2023-05-14T08:40:14.630Z,99754.22
2023-05-14T08:42:41.994Z,99756.84
2023-05-14T08:45:13.542Z,99751.84
2023-05-14T08:47:44.229Z,99747.84
2023-05-14T08:50:11.766Z,99750.47
2023-05-14T08:52:39.607Z,99754.63
2023-05-14T08:55:07.781Z,99747.06
2023-05-14T08:57:35.438Z,99744.09
2023-05-14T09:00:03.833Z,99746.69
2023-05-14T09:02:31.673Z,99749.22
2023-05-14T09:05:01.753Z,99740.22
2023-05-14T09:07:28.952Z,99741.25
2023-05-14T09:09:56.133Z,99737.47
2023-05-14T09:12:23.298Z,99745.28
2023-05-14T09:14:51.354Z,99740.03
2023-05-14T09:17:18.976Z,99732.28
2023-05-14T09:19:47.148Z,99729.66
2023-05-14T09:22:17.586Z,99727.88
2023-05-14T09:24:45.278Z,99733.50
2023-05-14T09:27:18.638Z,99728.31
2023-05-14T09:29:45.809Z,99726.75
2023-05-14T09:32:12.956Z,99725.56
2023-05-14T09:34:40.513Z,99730.84
2023-05-14T09:37:08.948Z,99725.22
2023-05-14T09:39:38.030Z,99728.94
2023-05-14T09:42:05.941Z,99718.88
2023-05-14T09:44:33.229Z,99712.38
2023-05-14T09:47:00.412Z,99715.72
2023-05-14T09:49:27.584Z,99714.72
2023-05-14T09:51:54.717Z,99710.09
2023-05-14T09:54:21.941Z,99708.44
2023-05-14T09:56:50.468Z,99712.81
2023-05-14T09:59:17.647Z,99708.47
2023-05-14T10:01:45.567Z,99705.06
2023-05-14T10:04:13.565Z,99704.94
2023-05-14T10:06:43.755Z,99697.41
2023-05-14T10:09:13.332Z,99702.81
2023-05-14T10:11:43.882Z,99702.31
2023-05-14T10:14:18.399Z,99705.63
2023-05-14T10:16:48.801Z,99705.38
2023-05-14T10:19:17.906Z,99708.91
2023-05-14T10:21:48.027Z,99714.13
2023-05-14T10:24:16.091Z,99708.19
2023-05-14T10:26:43.501Z,99703.09
2023-05-14T10:29:10.769Z,99701.63
2023-05-14T10:31:50.524Z,99696.47
2023-05-14T10:34:34.827Z,99704.59
2023-05-14T10:37:03.071Z,99704.38
2023-05-14T10:39:40.931Z,99697.28
2023-05-14T10:42:08.685Z,99688.47
2023-05-14T10:44:35.892Z,99692.19
2023-05-14T10:47:05.043Z,99688.22
2023-05-14T10:49:42.705Z,99687.56
2023-05-14T10:52:11.615Z,99691.59
2023-05-14T10:54:38.856Z,99687.56
2023-05-14T10:57:11.380Z,99682.47
2023-05-14T10:59:42.022Z,99681.31
2023-05-14T11:02:22.242Z,99684.88
2023-05-14T11:04:56.687Z,99675.25
2023-05-14T11:07:27.151Z,99670.66
2023-05-14T11:09:59.736Z,99667.84
2023-05-14T11:12:27.318Z,99677.44
2023-05-14T11:14:56.290Z,99672.59
2023-05-14T11:17:25.274Z,99669.72
2023-05-14T11:19:52.500Z,99667.63
2023-05-14T11:22:19.663Z,99667.06
2023-05-14T11:24:47.009Z,99663.22
2023-05-14T11:27:14.388Z,99666.31
2023-05-14T11:29:43.936Z,99664.88
2023-05-14T11:32:11.500Z,99663.53
2023-05-14T11:34:40.486Z,99660.13
2023-05-14T11:37:08.795Z,99654.81
2023-05-14T11:39:36.758Z,99659.69
2023-05-14T11:42:04.786Z,99654.38
2023-05-14T11:44:32.050Z,99650.34
2023-05-14T11:46:59.731Z,99649.97
2023-05-14T11:49:28.049Z,99643.84
2023-05-14T11:52:00.121Z,99642.25
2023-05-14T11:54:27.552Z,99631.91
2023-05-14T11:56:55.292Z,99622.78
2023-05-14T11:59:24.218Z,99617.47
2023-05-14T12:01:51.730Z,99619.75
2023-05-14T12:04:19.248Z,99620.03
2023-05-14T12:06:46.450Z,99611.91
2023-05-14T12:09:16.387Z,99615.53
2023-05-14T12:11:44.283Z,99615.16
2023-05-14T12:14:12.399Z,99610.16
2023-05-14T12:16:40.630Z,99602.53
2023-05-14T12:19:09.925Z,99596.00
2023-05-14T12:21:37.486Z,99582.19
2023-05-14T12:24:05.355Z,99585.78
2023-05-14T12:26:34.312Z,99578.47
2023-05-14T12:29:03.074Z,99568.91
2023-05-14T12:31:31.368Z,99570.19
2023-05-14T12:33:58.582Z,99568.66
2023-05-14T12:36:26.134Z,99565.41
2023-05-14T12:38:58.877Z,99558.63
2023-05-14T12:41:26.067Z,99556.28
2023-05-14T12:43:54.614Z,99556.50
2023-05-14T12:46:22.219Z,99553.03
2023-05-14T12:48:52.383Z,99545.53
2023-05-14T12:51:20.583Z,99539.34
2023-05-14T12:53:47.813Z,99542.09
2023-05-14T12:56:15.070Z,99531.88
2023-05-14T12:58:43.163Z,99532.09
2023-05-14T13:01:11.829Z,99527.09
2023-05-14T13:03:39.061Z,99526.66
2023-05-14T13:06:06.568Z,99526.25
2023-05-14T13:08:34.745Z,99518.38
2023-05-14T13:11:01.928Z,99517.81
2023-05-14T13:13:29.265Z,99517.00
2023-05-14T13:15:56.553Z,99510.91
2023-05-14T13:18:25.101Z,99504.00
2023-05-14T13:20:54.189Z,99497.19
2023-05-14T13:23:21.364Z,99504.88
2023-05-14T13:25:50.054Z,99493.03
2023-05-14T13:28:17.370Z,99499.06
2023-05-14T13:31:03.716Z,99505.59
2023-05-14T13:33:32.799Z,99499.06
2023-05-14T13:36:00.122Z,99489.88
2023-05-14T13:38:27.309Z,99493.69
2023-05-14T13:40:54.478Z,99483.75
2023-05-14T13:43:21.651Z,99485.25
2023-05-14T13:45:49.465Z,99475.59
2023-05-14T13:48:16.703Z,99465.28
2023-05-14T13:50:45.338Z,99468.66
2023-05-14T13:53:12.519Z,99477.03
2023-05-14T13:55:39.643Z,99471.44
2023-05-14T13:58:06.994Z,99461.84
2023-05-14T14:00:34.215Z,99467.72
2023-05-14T14:03:01.445Z,99460.47
2023-05-14T14:05:28.708Z,99457.88
2023-05-14T14:08:00.929Z,99452.22
2023-05-14T14:10:35.426Z,99466.72
2023-05-14T14:13:02.566Z,99473.91
2023-05-14T14:15:29.694Z,99461.72
2023-05-14T14:17:57.061Z,99462.75
2023-05-14T14:20:24.342Z,99456.41
2023-05-14T14:22:51.563Z,99446.47
2023-05-14T14:25:20.273Z,99445.88
2023-05-14T14:27:48.058Z,99444.72
2023-05-14T14:30:16.522Z,99441.34
2023-05-14T14:32:43.944Z,99441.97
2023-05-14T14:35:12.618Z,99437.66
2023-05-14T14:37:40.846Z,99437.91
2023-05-14T14:40:09.142Z,99437.38
2023-05-14T14:42:38.209Z,99431.09
2023-05-14T14:45:06.436Z,99427.91
2023-05-14T14:47:33.650Z,99420.31
2023-05-14T14:50:00.904Z,99427.44
2023-05-14T14:52:28.241Z,99413.84
2023-05-14T14:54:55.498Z,99414.03
2023-05-14T14:57:22.899Z,99409.75
2023-05-14T14:59:51.456Z,99411.00
2023-05-14T15:02:18.730Z,99406.22
2023-05-14T15:04:45.902Z,99402.34
2023-05-14T15:07:13.074Z,99421.00
2023-05-14T15:09:40.282Z,99411.06
2023-05-14T15:12:07.671Z,99418.81
2023-05-14T15:14:34.865Z,99419.22
2023-05-14T15:17:03.598Z,99410.13
2023-05-14T15:19:31.010Z,99407.81
2023-05-14T15:21:58.183Z,99415.84
2023-05-14T15:24:25.352Z,99413.47
2023-05-14T15:26:53.569Z,99417.56
2023-05-14T15:29:20.990Z,99410.25
2023-05-14T15:31:48.245Z,99407.78
2023-05-14T15:34:16.807Z,99396.31
2023-05-14T15:36:43.931Z,99399.84
2023-05-14T15:39:11.089Z,99398.78
2023-05-14T15:41:38.261Z,99392.06
2023-05-14T15:44:05.411Z,99393.94
2023-05-14T15:46:32.791Z,99388.06
2023-05-14T15:48:59.991Z,99385.19
2023-05-14T15:51:28.835Z,99376.81
2023-05-14T15:53:56.051Z,99378.97
2023-05-14T15:56:23.371Z,99387.28
2023-05-14T15:58:50.516Z,99385.88
2023-05-14T16:01:18.476Z,99379.44
2023-05-14T16:03:45.772Z,99379.16
2023-05-14T16:06:13.232Z,99376.06
2023-05-14T16:08:41.767Z,99376.31
2023-05-14T16:11:09.168Z,99371.38
2023-05-14T16:13:36.328Z,99373.25
2023-05-14T16:16:03.895Z,99372.75
2023-05-14T16:18:31.176Z,99374.94
2023-05-14T16:20:58.389Z,99381.84
2023-05-14T16:23:25.657Z,99377.97
2023-05-14T16:25:54.201Z,99372.47
2023-05-14T16:28:21.406Z,99375.19
2023-05-14T16:30:48.606Z,99375.59
2023-05-14T16:33:15.769Z,99367.75
2023-05-14T16:35:43.015Z,99362.16
2023-05-14T16:38:10.227Z,99367.84
2023-05-14T16:40:37.365Z,99361.88
2023-05-14T16:43:06.104Z,99370.03
2023-05-14T16:45:33.304Z,99362.34
2023-05-14T16:48:00.775Z,99365.91
2023-05-14T16:50:28.005Z,99363.81
2023-05-14T16:52:55.165Z,99368.88
2023-05-14T16:55:22.460Z,99359.00
2023-05-14T16:57:49.760Z,99364.84
2023-05-14T17:00:18.564Z,99367.19
2023-05-14T17:02:45.774Z,99354.13
2023-05-14T17:05:12.983Z,99357.31
2023-05-14T17:07:40.182Z,99349.69
2023-05-14T17:10:08.348Z,99351.69
2023-05-14T17:12:35.545Z,99363.56
2023-05-14T17:15:05.338Z,99354.78
2023-05-14T17:17:34.303Z,99367.72
2023-05-14T17:20:01.477Z,99358.81
2023-05-14T17:22:28.676Z,99355.50
2023-05-14T17:24:55.866Z,99361.31
2023-05-14T17:27:23.115Z,99362.44
2023-05-14T17:29:50.290Z,99361.63
2023-05-14T17:32:17.654Z,99367.38
2023-05-14T17:34:46.331Z,99365.69
2023-05-14T17:37:13.530Z,99363.91
2023-05-14T17:39:40.714Z,99366.44
2023-05-14T17:42:07.958Z,99359.59
2023-05-14T17:44:35.361Z,99369.19
2023-05-14T17:47:02.567Z,99368.69
2023-05-14T17:49:29.830Z,99380.28
2023-05-14T17:51:58.491Z,99371.19
2023-05-14T17:54:25.793Z,99386.97
2023-05-14T17:56:53.507Z,99383.00
2023-05-14T17:59:22.517Z,99392.50
2023-05-14T18:01:51.314Z,99389.84
2023-05-14T18:04:18.468Z,99393.56
2023-05-14T18:06:45.630Z,99389.38
2023-05-14T18:09:14.180Z,99394.13
2023-05-14T18:11:41.408Z,99415.75
2023-05-14T18:14:08.574Z,99421.97
2023-05-14T18:16:37.214Z,99427.56
2023-05-14T18:19:04.648Z,99439.56
2023-05-14T18:21:31.913Z,99449.66
2023-05-14T18:23:59.092Z,99455.72
2023-05-14T18:26:28.602Z,99450.72
2023-05-14T18:28:57.190Z,99449.31
2023-05-14T18:31:24.395Z,99458.81
2023-05-14T18:33:51.563Z,99454.81
2023-05-14T18:36:18.783Z,99456.13
2023-05-14T18:38:45.960Z,99454.66
2023-05-14T18:41:13.217Z,99456.22
2023-05-14T18:43:41.714Z,99448.47
2023-05-14T18:46:09.106Z,99445.13
2023-05-14T18:48:36.346Z,99450.31
2023-05-14T18:51:03.794Z,99456.47
2023-05-14T18:53:31.009Z,99447.69
2023-05-14T18:55:59.740Z,99451.78
2023-05-14T18:58:26.859Z,99447.81
2023-05-14T19:00:55.391Z,99455.25
2023-05-14T19:03:22.626Z,99455.97
2023-05-14T19:05:49.963Z,99456.03
2023-05-14T19:08:17.555Z,99458.78
2023-05-14T19:10:44.700Z,99463.72
2023-05-14T19:13:11.845Z,99465.03
2023-05-14T19:15:39.088Z,99470.31
2023-05-14T19:18:07.834Z,99471.34
2023-05-14T19:20:35.031Z,99468.44
2023-05-14T19:23:02.187Z,99465.91
2023-05-14T19:25:29.735Z,99469.06
2023-05-14T19:27:57.273Z,99468.66
2023-05-14T19:30:24.449Z,99463.19
2023-05-14T19:32:51.605Z,99467.41
2023-05-14T19:35:20.129Z,99463.81
2023-05-14T19:37:47.265Z,99469.50
2023-05-14T19:40:14.467Z,99464.63
2023-05-14T19:42:41.626Z,99466.88
2023-05-14T19:45:09.227Z,99468.97
2023-05-14T19:47:36.538Z,99472.34
2023-05-14T19:50:04.300Z,99475.47
2023-05-14T19:52:32.807Z,99474.56
2023-05-14T19:54:59.930Z,99474.56
2023-05-14T19:57:27.109Z,99477.50
2023-05-14T19:59:54.241Z,99477.28
2023-05-14T20:02:21.390Z,99490.34
2023-05-14T20:04:48.604Z,99474.69
2023-05-14T20:07:15.925Z,99474.28
2023-05-14T20:09:44.476Z,99471.91
2023-05-14T20:12:11.632Z,99466.16
2023-05-14T20:14:38.752Z,99465.03
2023-05-14T20:17:06.004Z,99462.25
2023-05-14T20:19:33.170Z,99464.53
2023-05-14T20:22:00.327Z,99464.94
2023-05-14T20:24:28.443Z,99456.09
2023-05-14T20:26:56.972Z,99455.00
2023-05-14T20:29:24.168Z,99460.69
2023-05-14T20:31:51.321Z,99459.09
2023-05-14T20:34:18.534Z,99453.34
2023-05-14T20:36:45.663Z,99452.13
2023-05-14T20:39:12.808Z,99447.72
2023-05-14T20:41:39.979Z,99452.47
2023-05-14T20:44:08.490Z,99455.34
2023-05-14T20:46:35.691Z,99454.63
2023-05-14T20:49:03.036Z,99445.72
2023-05-14T20:51:30.513Z,99442.28
2023-05-14T20:53:57.631Z,99433.34
2023-05-14T20:56:24.760Z,99426.31
2023-05-14T20:58:51.949Z,99431.47
2023-05-14T21:01:21.076Z,99427.00
2023-05-14T21:03:48.494Z,99422.91
2023-05-14T21:06:15.789Z,99428.56
2023-05-14T21:08:42.959Z,99423.22
2023-05-14T21:11:10.177Z,99425.47
2023-05-14T21:13:37.343Z,99418.53
2023-05-14T21:16:05.136Z,99419.75
2023-05-14T21:18:33.693Z,99415.91
2023-05-14T21:21:00.831Z,99419.00
2023-05-14T21:23:27.994Z,99413.47
2023-05-14T21:25:55.215Z,99423.28
2023-05-14T21:28:22.536Z,99419.41
2023-05-14T21:30:50.112Z,99420.72
2023-05-14T21:33:17.493Z,99425.22
2023-05-14T21:35:46.025Z,99414.41
2023-05-14T21:38:13.220Z,99413.47
2023-05-14T21:40:40.352Z,99408.59
2023-05-14T21:43:07.624Z,99403.03
2023-05-14T21:45:35.010Z,99403.13
2023-05-14T21:48:02.349Z,99407.91
2023-05-14T21:50:29.573Z,99402.53
2023-05-14T21:52:58.121Z,99403.09
2023-05-14T21:55:25.812Z,99403.72
2023-05-14T21:57:53.426Z,99399.66
2023-05-14T22:00:20.625Z,99400.03
2023-05-14T22:02:47.802Z,99401.25
2023-05-14T22:05:15.147Z,99401.47
2023-05-14T22:07:42.313Z,99401.72
2023-05-14T22:10:12.934Z,99398.31
2023-05-14T22:12:40.428Z,99395.59
2023-05-14T22:15:08.924Z,99394.06
2023-05-14T22:17:36.584Z,99397.22
2023-05-14T22:20:05.354Z,99399.41
2023-05-14T22:22:32.535Z,99403.22
2023-05-14T22:25:00.032Z,99405.59
2023-05-14T22:27:28.948Z,99396.94
2023-05-14T22:29:56.133Z,99391.00
2023-05-14T22:32:23.336Z,99382.91
2023-05-14T22:34:50.692Z,99386.66
2023-05-14T22:37:18.023Z,99390.59
2023-05-14T22:39:45.232Z,99391.81
2023-05-14T22:42:12.381Z,99388.75
2023-05-14T22:44:40.931Z,99389.13
2023-05-14T22:47:08.181Z,99391.53
2023-05-14T22:49:35.363Z,99400.06
2023-05-14T22:52:02.552Z,99394.81
2023-05-14T22:54:29.700Z,99389.91
2023-05-14T22:56:56.965Z,99386.69
2023-05-14T22:59:24.157Z,99376.16
2023-05-14T23:01:52.712Z,99378.72
2023-05-14T23:04:20.972Z,99379.56
2023-05-14T23:06:48.201Z,99380.09
2023-05-14T23:09:15.374Z,99378.94
2023-05-14T23:11:42.632Z,99382.38
2023-05-14T23:14:10.938Z,99380.50
2023-05-14T23:16:38.235Z,99383.25
2023-05-14T23:19:06.879Z,99386.84
2023-05-14T23:21:34.217Z,99379.25
2023-05-14T23:24:01.375Z,99378.91
2023-05-14T23:26:28.577Z,99377.06
2023-05-14T23:28:55.719Z,99372.47
2023-05-14T23:31:22.969Z,99373.31
2023-05-14T23:33:50.191Z,99367.56
2023-05-14T23:36:18.745Z,99362.63
2023-05-14T23:38:46.008Z,99361.97
2023-05-14T23:41:13.242Z,99364.22
2023-05-14T23:43:40.405Z,99359.13
2023-05-14T23:46:07.624Z,99359.94
2023-05-14T23:48:34.912Z,99366.78
2023-05-14T23:51:02.243Z,99355.41
2023-05-14T23:53:30.764Z,99354.91
2023-05-14T23:55:58.148Z,99358.13
2023-05-14T23:58:25.332Z,99359.03
